Time;durP1;ratioP1;P1;durP2;ratioP2;P2;SDS_P1;SDS_P2;PMS_P1;PMS_P2;Temp;Humidity;BMP_temperature;BMP_pressure;BME280_temperature;BME280_humidity;BME280_pressure;Samples;Min_cycle;Max_cycle;Signal;HPM_P1;HPM_P2
2023/03/15 00:00:49;;;;;;;1.25;1.00;;;;;;;;;;4982091;28;20105;-71
2023/03/15 00:03:15;;;;;;;2.67;1.35;;;;;;;;;;4981480;28;20050;-73
2023/03/15 00:05:45;;;;;;;2.90;1.23;;;;;;;;;;4963763;28;20053;-71
2023/03/15 00:08:12;;;;;;;3.28;1.20;;;;;;;;;;4980937;28;20042;-72
2023/03/15 00:10:45;;;;;;;1.60;1.20;;;;;;;;;;4959531;28;20057;-71
2023/03/15 00:13:12;;;;;;;2.83;1.20;;;;;;;;;;4981919;28;20085;-71
2023/03/15 00:15:51;;;;;;;4.45;1.42;;;;;;;;;;4980656;28;20112;-71
2023/03/15 00:18:18;;;;;;;4.40;1.20;;;;;;;;;;4980852;28;20042;-71
2023/03/15 00:20:43;;;;;;;3.90;1.10;;;;;;;;;;4963918;28;20517;-72
2023/03/15 00:23:09;;;;;;;3.60;1.15;;;;;;;;;;4981525;28;20096;-71
2023/03/15 00:25:35;;;;;;;2.95;1.60;;;;;;;;;;4980699;28;20054;-71
2023/03/15 00:28:00;;;;;;;2.72;1.30;;;;;;;;;;4981644;28;20062;-71
2023/03/15 00:30:26;;;;;;;4.45;1.45;;;;;;;;;;4979310;28;20049;-72
2023/03/15 00:32:55;;;;;;;5.13;1.52;;;;;;;;;;4981403;28;20136;-71
2023/03/15 00:35:22;;;;;;;3.90;1.40;;;;;;;;;;4980177;28;20061;-70
2023/03/15 00:37:48;;;;;;;2.83;1.63;;;;;;;;;;4963922;28;20105;-72
2023/03/15 00:40:14;;;;;;;1.67;1.55;;;;;;;;;;4980612;28;20046;-71
2023/03/15 00:42:40;;;;;;;4.97;1.30;;;;;;;;;;4981243;28;20417;-71
2023/03/15 00:45:06;;;;;;;1.05;0.95;;;;;;;;;;4980359;28;20497;-71
2023/03/15 00:47:32;;;;;;;2.72;1.30;;;;;;;;;;4963372;28;20054;-71
2023/03/15 00:49:58;;;;;;;4.65;1.30;;;;;;;;;;4981264;28;20148;-71
2023/03/15 00:52:24;;;;;;;1.38;1.27;;;;;;;;;;4962417;28;20069;-71
2023/03/15 00:54:53;;;;;;;1.48;1.25;;;;;;;;;;4962776;28;20065;-70
2023/03/15 00:57:19;;;;;;;3.92;1.17;;;;;;;;;;4957927;28;20156;-71
2023/03/15 00:59:44;;;;;;;1.33;1.20;;;;;;;;;;4963794;28;20078;-70
2023/03/15 01:02:10;;;;;;;1.85;1.23;;;;;;;;;;4957018;28;20049;-72
2023/03/15 01:04:36;;;;;;;3.08;1.08;;;;;;;;;;4980275;28;20042;-70
2023/03/15 01:07:01;;;;;;;2.50;0.75;;;;;;;;;;4980727;28;20116;-71
2023/03/15 01:09:27;;;;;;;2.75;1.15;;;;;;;;;;4980336;28;20827;-71
2023/03/15 01:11:52;;;;;;;1.00;0.55;;;;;;;;;;4960938;28;20065;-71
2023/03/15 01:14:18;;;;;;;1.52;1.10;;;;;;;;;;4978284;28;20042;-71
2023/03/15 01:16:44;;;;;;;1.20;1.10;;;;;;;;;;4979258;28;20050;-71
2023/03/15 01:19:13;;;;;;;1.50;1.00;;;;;;;;;;4977846;28;20049;-71
2023/03/15 01:21:39;;;;;;;2.97;1.50;;;;;;;;;;4978321;28;20058;-71
2023/03/15 01:24:05;;;;;;;3.20;1.52;;;;;;;;;;4978582;28;20046;-71
2023/03/15 01:26:30;;;;;;;2.33;1.17;;;;;;;;;;4980279;28;20050;-70
2023/03/15 01:28:56;;;;;;;1.83;1.08;;;;;;;;;;4962438;28;20050;-71
2023/03/15 01:31:27;;;;;;;0.70;0.70;;;;;;;;;;4962371;28;20056;-70
2023/03/15 01:33:53;;;;;;;1.13;0.80;;;;;;;;;;4962955;28;20046;-70
2023/03/15 01:36:20;;;;;;;0.90;0.88;;;;;;;;;;4961947;28;20049;-71
2023/03/15 01:38:45;;;;;;;0.52;0.52;;;;;;;;;;4958741;28;20054;-71
2023/03/15 01:41:13;;;;;;;0.77;0.77;;;;;;;;;;4978754;28;20038;-70
2023/03/15 01:43:45;;;;;;;0.63;0.63;;;;;;;;;;4946447;28;20050;-71
2023/03/15 01:46:34;;;;;;;1.92;0.98;;;;;;;;;;4945225;28;21044;-71
2023/03/15 01:49:27;;;;;;;1.23;0.70;;;;;;;;;;4978039;28;20955;-71
2023/03/15 01:51:56;;;;;;;0.70;0.70;;;;;;;;;;4962247;28;20073;-71
2023/03/15 01:54:50;;;;;;;1.10;0.90;;;;;;;;;;4961975;28;20034;-71
2023/03/15 01:57:24;;;;;;;0.70;0.70;;;;;;;;;;4969670;28;20057;-71
2023/03/15 02:00:07;;;;;;;0.47;0.47;;;;;;;;;;4950935;28;20046;-71
2023/03/15 02:02:46;;;;;;;0.70;0.70;;;;;;;;;;4979971;28;20062;-71
2023/03/15 02:05:25;;;;;;;1.20;0.80;;;;;;;;;;4960670;28;20050;-71
2023/03/15 02:07:53;;;;;;;1.40;0.82;;;;;;;;;;4961917;28;20057;-70
2023/03/15 02:10:35;;;;;;;0.80;0.80;;;;;;;;;;4959456;28;20050;-72
2023/03/15 02:13:02;;;;;;;0.73;0.73;;;;;;;;;;4962709;28;20046;-72
2023/03/15 02:15:28;;;;;;;0.80;0.80;;;;;;;;;;4957655;28;20146;-72
2023/03/15 02:17:53;;;;;;;2.33;1.10;;;;;;;;;;4963356;28;20564;-71
2023/03/15 02:20:39;;;;;;;0.98;0.88;;;;;;;;;;4961606;28;20061;-72
2023/03/15 02:23:11;;;;;;;0.85;0.85;;;;;;;;;;4982845;28;20046;-72
2023/03/15 02:25:55;;;;;;;0.70;0.70;;;;;;;;;;4981397;28;20108;-72
2023/03/15 02:28:21;;;;;;;0.60;0.60;;;;;;;;;;4978869;28;20085;-72
2023/03/15 02:30:47;;;;;;;3.70;1.02;;;;;;;;;;4965547;28;20057;-72
2023/03/15 02:33:26;;;;;;;0.60;0.60;;;;;;;;;;4950048;28;20050;-72
2023/03/15 02:35:52;;;;;;;1.20;1.20;;;;;;;;;;4961804;28;20057;-72
2023/03/15 02:38:18;;;;;;;1.35;1.25;;;;;;;;;;4966219;28;20054;-73
2023/03/15 02:40:45;;;;;;;0.95;0.95;;;;;;;;;;4959185;28;20497;-72
2023/03/15 02:43:22;;;;;;;0.98;0.98;;;;;;;;;;4983027;28;20050;-73
2023/03/15 02:45:48;;;;;;;1.45;1.35;;;;;;;;;;4945531;28;20515;-72
2023/03/15 02:48:14;;;;;;;0.75;0.75;;;;;;;;;;4965743;28;20042;-72
2023/03/15 02:50:40;;;;;;;1.33;1.23;;;;;;;;;;4983380;28;20054;-72
2023/03/15 02:53:05;;;;;;;0.88;0.88;;;;;;;;;;4980871;28;20462;-73
2023/03/15 02:55:34;;;;;;;1.80;1.67;;;;;;;;;;4958017;28;20042;-73
2023/03/15 02:58:00;;;;;;;0.95;0.95;;;;;;;;;;4982375;28;20152;-73
2023/03/15 03:00:27;;;;;;;0.95;0.95;;;;;;;;;;4965438;28;20080;-73
2023/03/15 03:02:53;;;;;;;1.10;1.10;;;;;;;;;;4982611;28;20058;-73
2023/03/15 03:05:19;;;;;;;3.25;1.50;;;;;;;;;;4981847;28;20045;-73
2023/03/15 03:07:44;;;;;;;1.33;1.23;;;;;;;;;;4983234;28;20050;-72
2023/03/15 03:10:13;;;;;;;1.40;1.30;;;;;;;;;;4965508;28;20749;-73
2023/03/15 03:12:52;;;;;;;1.20;1.10;;;;;;;;;;4981731;28;20047;-73
2023/03/15 03:15:18;;;;;;;1.30;1.20;;;;;;;;;;4979086;28;20050;-72
2023/03/15 03:17:43;;;;;;;1.13;1.05;;;;;;;;;;4982741;28;20135;-72
2023/03/15 03:20:11;;;;;;;1.40;1.30;;;;;;;;;;4981471;28;20064;-72
2023/03/15 03:22:43;;;;;;;1.00;1.00;;;;;;;;;;4965728;28;20713;-72
2023/03/15 03:25:09;;;;;;;1.63;1.52;;;;;;;;;;4963697;28;20042;-72
2023/03/15 03:27:35;;;;;;;2.00;1.70;;;;;;;;;;4980224;28;20042;-71
2023/03/15 03:30:04;;;;;;;1.70;1.60;;;;;;;;;;4962556;28;20061;-73
2023/03/15 03:32:31;;;;;;;1.33;1.23;;;;;;;;;;4972680;28;20054;-73
2023/03/15 03:34:57;;;;;;;1.70;1.60;;;;;;;;;;4968489;28;20101;-72
2023/03/15 03:37:23;;;;;;;1.95;1.85;;;;;;;;;;4979636;28;20050;-72
2023/03/15 03:40:04;;;;;;;1.40;1.30;;;;;;;;;;4981037;28;20125;-72
2023/03/15 03:42:29;;;;;;;1.38;1.27;;;;;;;;;;4964958;28;20409;-72
2023/03/15 03:44:54;;;;;;;1.98;1.88;;;;;;;;;;4979464;28;20046;-73
2023/03/15 03:47:23;;;;;;;1.73;1.63;;;;;;;;;;4979548;28;20038;-72
2023/03/15 03:49:48;;;;;;;1.20;1.20;;;;;;;;;;4980911;28;20516;-73
2023/03/15 03:52:14;;;;;;;1.23;1.17;;;;;;;;;;4964512;28;20038;-72
2023/03/15 03:54:41;;;;;;;1.83;1.30;;;;;;;;;;4957302;28;20046;-73
2023/03/15 03:57:08;;;;;;;1.80;1.42;;;;;;;;;;4948847;28;20141;-72
2023/03/15 03:59:34;;;;;;;2.35;1.90;;;;;;;;;;4979242;28;20513;-72
2023/03/15 04:02:03;;;;;;;1.42;1.30;;;;;;;;;;4977602;28;20053;-72
2023/03/15 04:04:29;;;;;;;3.20;1.65;;;;;;;;;;4978997;28;20042;-73
2023/03/15 04:06:54;;;;;;;2.42;1.40;;;;;;;;;;4981138;28;20130;-73
2023/03/15 04:09:24;;;;;;;5.30;2.35;;;;;;;;;;4952086;28;20047;-72
2023/03/15 04:11:51;;;;;;;4.90;2.22;;;;;;;;;;4960263;28;20050;-73
2023/03/15 04:14:17;;;;;;;1.83;1.70;;;;;;;;;;4962928;28;20049;-72
2023/03/15 04:16:45;;;;;;;5.82;2.60;;;;;;;;;;4963525;28;20607;-73
2023/03/15 04:19:14;;;;;;;3.75;2.05;;;;;;;;;;4978747;28;20042;-72
2023/03/15 04:21:46;;;;;;;5.65;2.33;;;;;;;;;;4979114;28;20069;-72
2023/03/15 04:24:34;;;;;;;2.72;1.98;;;;;;;;;;4966905;28;20596;-73
2023/03/15 04:27:20;;;;;;;3.17;2.47;;;;;;;;;;4972636;28;20253;-71
2023/03/15 04:30:04;;;;;;;9.82;2.55;;;;;;;;;;4979190;28;20061;-72
2023/03/15 04:32:29;;;;;;;4.28;2.67;;;;;;;;;;4979877;28;20068;-72
2023/03/15 04:35:10;;;;;;;6.38;2.70;;;;;;;;;;4978606;28;20042;-72
2023/03/15 04:37:54;;;;;;;3.58;2.42;;;;;;;;;;4947601;28;20065;-72
2023/03/15 04:40:35;;;;;;;5.03;2.58;;;;;;;;;;4977771;28;20880;-72
2023/03/15 04:43:21;;;;;;;8.27;3.00;;;;;;;;;;4979170;28;20097;-72
2023/03/15 04:46:15;;;;;;;8.55;2.78;;;;;;;;;;4962151;28;20567;-73
2023/03/15 04:48:55;;;;;;;2.33;1.60;;;;;;;;;;4979197;28;20121;-73
2023/03/15 04:51:39;;;;;;;4.22;2.08;;;;;;;;;;4979194;28;20050;-72
2023/03/15 04:54:15;;;;;;;1.35;1.25;;;;;;;;;;4977505;28;20054;-72
2023/03/15 04:56:59;;;;;;;2.35;1.70;;;;;;;;;;4937120;28;1263189;-72
2023/03/15 04:59:45;;;;;;;1.60;1.50;;;;;;;;;;4949886;28;20050;-72
2023/03/15 05:02:26;;;;;;;4.35;1.45;;;;;;;;;;4979446;28;20533;-72
2023/03/15 05:05:17;;;;;;;3.45;1.65;;;;;;;;;;4955321;28;20425;-74
2023/03/15 05:08:09;;;;;;;4.77;1.80;;;;;;;;;;4941883;28;20045;-72
2023/03/15 05:11:06;;;;;;;2.90;1.85;;;;;;;;;;4923037;28;20049;-72
2023/03/15 05:13:45;;;;;;;1.60;1.50;;;;;;;;;;4978094;28;20046;-72
2023/03/15 05:16:26;;;;;;;4.45;2.40;;;;;;;;;;4959428;28;20121;-73
2023/03/15 05:19:21;;;;;;;4.32;2.47;;;;;;;;;;4967784;28;20061;-73
2023/03/15 05:22:16;;;;;;;2.28;1.95;;;;;;;;;;4941805;28;20063;-73
2023/03/15 05:25:01;;;;;;;2.53;1.90;;;;;;;;;;4960530;28;20076;-71
2023/03/15 05:27:51;;;;;;;2.40;1.85;;;;;;;;;;4936987;28;20613;-71
2023/03/15 05:30:25;;;;;;;3.83;1.90;;;;;;;;;;4960916;28;20085;-71
2023/03/15 05:33:07;;;;;;;4.32;2.17;;;;;;;;;;4977243;28;20366;-72
2023/03/15 05:35:59;;;;;;;7.60;2.70;;;;;;;;;;4958018;28;20042;-72
2023/03/15 05:38:36;;;;;;;8.02;2.33;;;;;;;;;;4978051;28;20072;-72
2023/03/15 05:41:16;;;;;;;1.15;1.13;;;;;;;;;;4978546;28;20038;-72
2023/03/15 05:44:08;;;;;;;2.38;1.58;;;;;;;;;;4947887;28;20053;-71
2023/03/15 05:46:57;;;;;;;4.50;1.83;;;;;;;;;;4968915;28;20045;-71
2023/03/15 05:49:49;;;;;;;1.70;1.55;;;;;;;;;;4965492;28;20053;-73
2023/03/15 05:52:49;;;;;;;3.80;1.58;;;;;;;;;;4948167;28;20101;-73
2023/03/15 05:55:25;;;;;;;5.97;2.50;;;;;;;;;;4978457;28;20390;-72
2023/03/15 05:58:13;;;;;;;1.88;1.65;;;;;;;;;;4953411;28;20053;-72
2023/03/15 06:01:00;;;;;;;9.60;2.88;;;;;;;;;;4983221;28;20081;-71
2023/03/15 06:03:43;;;;;;;8.27;3.20;;;;;;;;;;4982638;28;20049;-72
2023/03/15 06:06:17;;;;;;;8.60;2.17;;;;;;;;;;4966662;28;20046;-72
2023/03/15 06:08:43;;;;;;;3.60;2.38;;;;;;;;;;4966891;28;20050;-70
2023/03/15 06:11:08;;;;;;;3.58;2.10;;;;;;;;;;4965513;28;20050;-72
2023/03/15 06:13:34;;;;;;;4.85;3.40;;;;;;;;;;4982853;28;20034;-72
2023/03/15 06:16:05;;;;;;;8.32;3.38;;;;;;;;;;4983603;28;20532;-73
2023/03/15 06:18:32;;;;;;;5.57;3.10;;;;;;;;;;4966502;28;20065;-71
2023/03/15 06:20:58;;;;;;;4.45;3.38;;;;;;;;;;4965388;28;20038;-72
2023/03/15 06:23:23;;;;;;;3.15;2.60;;;;;;;;;;4965406;28;20056;-73
2023/03/15 06:25:48;;;;;;;7.20;3.95;;;;;;;;;;4965577;28;20413;-72
2023/03/15 06:28:15;;;;;;;6.15;3.38;;;;;;;;;;4966414;28;20104;-72
2023/03/15 06:30:50;;;;;;;9.25;4.22;;;;;;;;;;4966230;28;20061;-72
2023/03/15 06:33:17;;;;;;;6.18;3.70;;;;;;;;;;4965772;28;20045;-72
2023/03/15 06:35:45;;;;;;;8.82;3.22;;;;;;;;;;4981706;28;20046;-72
2023/03/15 06:38:12;;;;;;;5.05;3.15;;;;;;;;;;4966430;28;20053;-72
2023/03/15 06:40:38;;;;;;;4.20;2.65;;;;;;;;;;4983039;28;20073;-72
2023/03/15 06:43:05;;;;;;;13.07;3.83;;;;;;;;;;4965611;28;20050;-72
2023/03/15 06:45:32;;;;;;;9.00;3.33;;;;;;;;;;4952350;28;20115;-71
2023/03/15 06:47:58;;;;;;;3.40;2.88;;;;;;;;;;4966085;28;20129;-72
2023/03/15 06:50:24;;;;;;;4.50;2.90;;;;;;;;;;4966393;28;20592;-72
2023/03/15 06:52:49;;;;;;;5.88;4.07;;;;;;;;;;4978373;28;20060;-72
2023/03/15 06:55:17;;;;;;;5.53;3.42;;;;;;;;;;4962064;28;20156;-72
2023/03/15 06:57:43;;;;;;;8.07;3.67;;;;;;;;;;4965731;28;20047;-73
2023/03/15 07:00:10;;;;;;;5.28;2.42;;;;;;;;;;4984055;28;20105;-72
2023/03/15 07:02:36;;;;;;;11.73;2.97;;;;;;;;;;4985688;28;20125;-71
2023/03/15 07:05:03;;;;;;;4.05;2.95;;;;;;;;;;4984133;28;20497;-71
2023/03/15 07:07:28;;;;;;;5.32;2.90;;;;;;;;;;4983116;28;20042;-70
2023/03/15 07:09:54;;;;;;;6.93;2.80;;;;;;;;;;4983621;28;20531;-70
2023/03/15 07:12:19;;;;;;;4.95;3.05;;;;;;;;;;4984118;28;20117;-70
2023/03/15 07:14:45;;;;;;;4.88;2.22;;;;;;;;;;4983638;28;20141;-70
2023/03/15 07:17:11;;;;;;;7.60;3.53;;;;;;;;;;4982262;28;20074;-70
2023/03/15 07:19:37;;;;;;;3.00;2.33;;;;;;;;;;4982961;28;20050;-70
2023/03/15 07:22:02;;;;;;;11.07;3.40;;;;;;;;;;4982315;28;20061;-71
2023/03/15 07:24:28;;;;;;;6.78;2.70;;;;;;;;;;4982457;28;20045;-70
2023/03/15 07:26:55;;;;;;;10.68;3.58;;;;;;;;;;4981958;28;20112;-70
2023/03/15 07:29:22;;;;;;;6.55;3.60;;;;;;;;;;4981639;28;20058;-72
2023/03/15 07:31:48;;;;;;;6.32;3.22;;;;;;;;;;4981922;28;20058;-72
2023/03/15 07:34:13;;;;;;;8.45;3.75;;;;;;;;;;4982187;28;20046;-71
2023/03/15 07:36:39;;;;;;;8.93;3.35;;;;;;;;;;4982540;28;20050;-71
2023/03/15 07:39:04;;;;;;;7.50;3.38;;;;;;;;;;4980273;28;20057;-73
2023/03/15 07:41:30;;;;;;;6.18;3.08;;;;;;;;;;4980526;28;21162;-73
2023/03/15 07:44:05;;;;;;;5.97;4.00;;;;;;;;;;4960151;28;20123;-73
2023/03/15 07:46:30;;;;;;;4.55;3.30;;;;;;;;;;4982294;28;20042;-72
2023/03/15 07:48:56;;;;;;;8.93;3.63;;;;;;;;;;4981454;28;20042;-71
2023/03/15 07:51:21;;;;;;;8.30;3.90;;;;;;;;;;4979784;28;20077;-71
2023/03/15 07:53:46;;;;;;;6.53;3.70;;;;;;;;;;4982223;28;20058;-73
2023/03/15 07:56:12;;;;;;;7.95;4.22;;;;;;;;;;4981656;28;20072;-72
2023/03/15 07:58:37;;;;;;;11.10;3.58;;;;;;;;;;4982199;28;20079;-72
2023/03/15 08:01:03;;;;;;;4.40;2.92;;;;;;;;;;4980811;28;20070;-71
2023/03/15 08:03:28;;;;;;;7.60;3.80;;;;;;;;;;4981018;28;20412;-71
2023/03/15 08:05:54;;;;;;;6.97;3.80;;;;;;;;;;4981194;28;20149;-71
2023/03/15 08:08:19;;;;;;;7.40;4.97;;;;;;;;;;4981966;28;20104;-71
2023/03/15 08:10:45;;;;;;;7.93;4.63;;;;;;;;;;4980996;28;20050;-72
2023/03/15 08:13:11;;;;;;;5.43;3.28;;;;;;;;;;4963640;28;20066;-72
2023/03/15 08:15:37;;;;;;;5.78;3.92;;;;;;;;;;4980696;28;20464;-72
2023/03/15 08:18:02;;;;;;;6.38;4.20;;;;;;;;;;4980148;28;20038;-73
2023/03/15 08:20:28;;;;;;;7.78;3.72;;;;;;;;;;4979249;28;20046;-72
2023/03/15 08:22:53;;;;;;;7.10;4.20;;;;;;;;;;4978997;28;20129;-72
2023/03/15 08:25:22;;;;;;;6.25;4.35;;;;;;;;;;4979099;28;20074;-72
2023/03/15 08:27:48;;;;;;;7.13;4.25;;;;;;;;;;4980291;28;20056;-71
2023/03/15 08:30:15;;;;;;;6.88;3.83;;;;;;;;;;4980916;28;20061;-72
2023/03/15 08:32:43;;;;;;;7.03;3.72;;;;;;;;;;4981562;28;20063;-71
2023/03/15 08:35:09;;;;;;;7.20;3.75;;;;;;;;;;4980367;28;20046;-72
2023/03/15 08:37:34;;;;;;;4.97;3.75;;;;;;;;;;4980233;28;20141;-72
2023/03/15 08:40:04;;;;;;;6.22;4.00;;;;;;;;;;4981314;28;20042;-71
2023/03/15 08:42:29;;;;;;;7.47;4.50;;;;;;;;;;4981273;28;20046;-71
2023/03/15 08:44:58;;;;;;;6.18;3.47;;;;;;;;;;4979433;28;20061;-72
2023/03/15 08:47:24;;;;;;;8.95;4.05;;;;;;;;;;4980516;28;20125;-72
2023/03/15 08:49:52;;;;;;;7.20;3.92;;;;;;;;;;4981098;28;20050;-72
2023/03/15 08:52:18;;;;;;;3.80;2.72;;;;;;;;;;4982019;28;20050;-72
2023/03/15 08:54:43;;;;;;;3.75;3.20;;;;;;;;;;4979211;28;20838;-71
2023/03/15 08:57:09;;;;;;;8.75;4.25;;;;;;;;;;4976261;28;20072;-70
2023/03/15 08:59:34;;;;;;;11.55;3.78;;;;;;;;;;4980114;28;20133;-70
2023/03/15 09:02:00;;;;;;;5.53;3.60;;;;;;;;;;4980668;28;20525;-70
2023/03/15 09:04:26;;;;;;;6.32;3.63;;;;;;;;;;4962799;28;20402;-70
2023/03/15 09:06:52;;;;;;;7.85;3.55;;;;;;;;;;4979514;28;20509;-71
2023/03/15 09:09:18;;;;;;;10.90;3.88;;;;;;;;;;4978291;28;20497;-70
2023/03/15 09:11:43;;;;;;;4.38;3.35;;;;;;;;;;4979445;28;20070;-70
2023/03/15 09:14:08;;;;;;;7.82;3.15;;;;;;;;;;4979894;28;20054;-70
2023/03/15 09:16:34;;;;;;;4.75;2.22;;;;;;;;;;4979410;28;20133;-70
2023/03/15 09:18:59;;;;;;;5.03;2.47;;;;;;;;;;4980944;28;20046;-70
2023/03/15 09:21:26;;;;;;;4.70;2.40;;;;;;;;;;4979871;28;20052;-70
2023/03/15 09:23:52;;;;;;;8.35;2.10;;;;;;;;;;4981498;28;20069;-70
2023/03/15 09:26:17;;;;;;;9.95;3.03;;;;;;;;;;4979817;28;20129;-70
2023/03/15 09:28:42;;;;;;;4.78;2.45;;;;;;;;;;4979592;28;20086;-70
2023/03/15 09:31:08;;;;;;;10.43;2.47;;;;;;;;;;4979963;28;20523;-70
2023/03/15 09:33:34;;;;;;;7.63;2.70;;;;;;;;;;4980592;28;20054;-70
2023/03/15 09:35:59;;;;;;;6.03;2.03;;;;;;;;;;4980255;28;20101;-70
2023/03/15 09:38:25;;;;;;;3.97;1.98;;;;;;;;;;4977957;28;20480;-70
2023/03/15 09:40:56;;;;;;;6.70;2.20;;;;;;;;;;4981190;28;20053;-70
2023/03/15 09:43:37;;;;;;;3.30;2.10;;;;;;;;;;4980674;28;20516;-69
2023/03/15 09:46:39;;;;;;;4.53;2.50;;;;;;;;;;4980855;28;20054;-70
2023/03/15 09:49:13;;;;;;;6.53;3.07;;;;;;;;;;4943421;28;20462;-71
2023/03/15 09:51:46;;;;;;;5.93;2.75;;;;;;;;;;4980191;28;20321;-70
2023/03/15 09:54:22;;;;;;;4.63;2.28;;;;;;;;;;4979899;28;20073;-70
2023/03/15 09:57:02;;;;;;;7.15;2.60;;;;;;;;;;4981581;28;20050;-70
2023/03/15 09:59:34;;;;;;;2.78;2.40;;;;;;;;;;4981845;28;20047;-70
2023/03/15 10:02:12;;;;;;;3.05;2.40;;;;;;;;;;4980880;28;20800;-69
2023/03/15 10:04:41;;;;;;;4.10;2.05;;;;;;;;;;4981471;28;20061;-70
2023/03/15 10:07:12;;;;;;;4.75;2.13;;;;;;;;;;4979207;28;20501;-70
2023/03/15 10:09:38;;;;;;;2.05;1.70;;;;;;;;;;4978559;28;20051;-71
2023/03/15 10:12:04;;;;;;;1.98;1.65;;;;;;;;;;4979367;28;20058;-70
2023/03/15 10:14:58;;;;;;;10.95;3.33;;;;;;;;;;4979410;28;20077;-70
2023/03/15 10:17:34;;;;;;;4.70;2.33;;;;;;;;;;4978984;28;20085;-71
2023/03/15 10:20:12;;;;;;;2.75;2.22;;;;;;;;;;4979311;28;20046;-71
2023/03/15 10:22:47;;;;;;;2.72;1.70;;;;;;;;;;4978418;28;20093;-70
2023/03/15 10:25:26;;;;;;;3.75;2.22;;;;;;;;;;4979429;28;20064;-71
2023/03/15 10:28:03;;;;;;;3.85;2.17;;;;;;;;;;4955895;28;20085;-71
2023/03/15 10:30:31;;;;;;;6.28;2.03;;;;;;;;;;4979310;28;20114;-70
2023/03/15 10:33:12;;;;;;;7.70;2.80;;;;;;;;;;4977893;28;20112;-70
2023/03/15 10:35:37;;;;;;;2.80;2.08;;;;;;;;;;4977382;28;20437;-69
2023/03/15 10:38:14;;;;;;;3.53;2.35;;;;;;;;;;4979354;28;20054;-71
2023/03/15 10:40:46;;;;;;;3.20;2.17;;;;;;;;;;4979664;28;20074;-71
2023/03/15 10:43:13;;;;;;;;;;;;;;;;;;4984774;28;20126;-71
2023/03/15 10:45:39;;;;;;;6.20;2.47;;;;;;;;;;4984823;28;19941;-72
2023/03/15 10:48:04;;;;;;;4.15;2.22;;;;;;;;;;4985075;28;20050;-71
2023/03/15 10:50:32;;;;;;;7.13;2.13;;;;;;;;;;4982918;28;20046;-70
2023/03/15 10:53:01;;;;;;;6.70;2.65;;;;;;;;;;4983909;28;20061;-70
2023/03/15 10:55:38;;;;;;;3.58;1.80;;;;;;;;;;4985336;28;20052;-71
2023/03/15 10:58:16;;;;;;;5.43;2.53;;;;;;;;;;4984834;28;20078;-71
2023/03/15 11:00:51;;;;;;;8.63;2.85;;;;;;;;;;4983608;28;20057;-72
2023/03/15 11:03:17;;;;;;;4.55;2.22;;;;;;;;;;4983378;28;20406;-71
2023/03/15 11:05:49;;;;;;;5.53;2.00;;;;;;;;;;4982450;28;20046;-71
2023/03/15 11:08:17;;;;;;;5.80;1.92;;;;;;;;;;4981571;28;20054;-71
2023/03/15 11:10:44;;;;;;;5.50;2.50;;;;;;;;;;4983136;28;20050;-71
2023/03/15 11:13:22;;;;;;;5.97;1.63;;;;;;;;;;4961558;28;20081;-71
2023/03/15 11:16:07;;;;;;;3.60;2.13;;;;;;;;;;4981668;28;20039;-71
2023/03/15 11:19:00;;;;;;;1.92;1.65;;;;;;;;;;4977064;28;20100;-71
2023/03/15 11:21:32;;;;;;;2.70;2.03;;;;;;;;;;4982582;28;20133;-71
2023/03/15 11:24:00;;;;;;;4.90;2.58;;;;;;;;;;4982972;28;20208;-71
2023/03/15 11:26:28;;;;;;;5.50;2.00;;;;;;;;;;4982786;28;20501;-72
2023/03/15 11:29:04;;;;;;;2.75;1.80;;;;;;;;;;4981597;28;20045;-71
2023/03/15 11:31:30;;;;;;;3.05;1.70;;;;;;;;;;4982059;28;20146;-71
2023/03/15 11:34:07;;;;;;;3.28;2.05;;;;;;;;;;4981296;28;20157;-71
2023/03/15 11:36:38;;;;;;;3.08;1.58;;;;;;;;;;4982584;28;20042;-71
2023/03/15 11:39:04;;;;;;;7.68;2.08;;;;;;;;;;4982067;28;20069;-71
2023/03/15 11:41:41;;;;;;;5.10;1.88;;;;;;;;;;4980727;28;20043;-72
2023/03/15 11:44:32;;;;;;;4.32;1.60;;;;;;;;;;4981834;28;20759;-71
2023/03/15 11:47:07;;;;;;;4.68;1.60;;;;;;;;;;4976306;28;20038;-71
2023/03/15 11:49:54;;;;;;;1.98;1.40;;;;;;;;;;4980260;28;20044;-72
2023/03/15 11:52:23;;;;;;;8.43;1.80;;;;;;;;;;4984875;28;20054;-70
2023/03/15 11:54:49;;;;;;;7.72;1.92;;;;;;;;;;4979636;28;20084;-71
2023/03/15 11:57:38;;;;;;;3.92;1.60;;;;;;;;;;4981411;28;20061;-71
2023/03/15 12:00:48;;;;;;;3.75;2.20;;;;;;;;;;4965840;28;20476;-70
2023/03/15 12:03:42;;;;;;;4.68;1.73;;;;;;;;;;4980860;28;20058;-70
2023/03/15 12:06:32;;;;;;;2.60;1.50;;;;;;;;;;4942474;28;20145;-70
2023/03/15 12:08:58;;;;;;;2.78;1.40;;;;;;;;;;4972324;28;20054;-70
2023/03/15 12:11:23;;;;;;;3.90;1.30;;;;;;;;;;4981375;28;20053;-70
2023/03/15 12:13:52;;;;;;;4.45;1.40;;;;;;;;;;4982961;28;20054;-72
2023/03/15 12:16:24;;;;;;;3.63;1.50;;;;;;;;;;4983305;28;20060;-71
2023/03/15 12:18:49;;;;;;;;;;;;;;;;;;4981919;28;20069;-72
2023/03/15 12:21:21;;;;;;;8.75;1.40;;;;;;;;;;4982001;28;19988;-70
2023/03/15 12:24:04;;;;;;;3.35;1.20;;;;;;;;;;4980409;28;20490;-69
2023/03/15 12:27:14;;;;;;;2.60;1.40;;;;;;;;;;4979291;28;20137;-69
2023/03/15 12:29:42;;;;;;;4.25;1.08;;;;;;;;;;4975226;28;20519;-70
2023/03/15 12:32:12;;;;;;;2.67;1.13;;;;;;;;;;4978780;28;20054;-71
2023/03/15 12:34:57;;;;;;;2.22;0.85;;;;;;;;;;4961932;28;20050;-69
2023/03/15 12:37:36;;;;;;;2.38;1.00;;;;;;;;;;4978791;28;20068;-70
2023/03/15 12:40:14;;;;;;;1.75;0.90;;;;;;;;;;4979396;28;20100;-70
2023/03/15 12:42:40;;;;;;;2.53;0.75;;;;;;;;;;4976099;28;20039;-69
2023/03/15 12:45:14;;;;;;;1.70;1.10;;;;;;;;;;4979781;28;20101;-70
2023/03/15 12:47:43;;;;;;;1.35;0.98;;;;;;;;;;4979121;28;20050;-70
2023/03/15 12:50:43;;;;;;;6.35;1.30;;;;;;;;;;4979346;28;20132;-70
2023/03/15 12:53:21;;;;;;;1.63;0.70;;;;;;;;;;4969724;28;20089;-69
2023/03/15 12:55:48;;;;;;;3.60;0.88;;;;;;;;;;4978053;28;20491;-70
2023/03/15 12:58:16;;;;;;;2.05;0.90;;;;;;;;;;4977961;28;20417;-70
2023/03/15 13:00:43;;;;;;;4.75;0.90;;;;;;;;;;4980052;28;20146;-69
2023/03/15 13:03:20;;;;;;;2.35;0.70;;;;;;;;;;4980123;28;20054;-69
2023/03/15 13:06:17;;;;;;;4.00;0.80;;;;;;;;;;4978246;28;20109;-70
2023/03/15 13:08:51;;;;;;;3.03;0.88;;;;;;;;;;4978063;28;20054;-69
2023/03/15 13:11:32;;;;;;;1.13;0.70;;;;;;;;;;4977800;28;20129;-70
2023/03/15 13:14:42;;;;;;;1.00;0.75;;;;;;;;;;4960168;28;20047;-71
2023/03/15 13:17:23;;;;;;;1.65;0.80;;;;;;;;;;4945808;28;20144;-70
2023/03/15 13:20:01;;;;;;;3.05;0.98;;;;;;;;;;4978282;28;20066;-70
2023/03/15 13:22:36;;;;;;;2.15;1.23;;;;;;;;;;4980198;28;20050;-71
2023/03/15 13:25:23;;;;;;;2.33;1.00;;;;;;;;;;4979385;28;20046;-71
2023/03/15 13:28:05;;;;;;;2.30;0.73;;;;;;;;;;4976774;28;20064;-71
2023/03/15 13:30:38;;;;;;;1.20;0.90;;;;;;;;;;4978431;28;20141;-71
2023/03/15 13:33:26;;;;;;;1.75;1.00;;;;;;;;;;4979086;28;20062;-71
2023/03/15 13:36:00;;;;;;;3.75;0.93;;;;;;;;;;4954232;28;20082;-71
2023/03/15 13:38:30;;;;;;;1.75;0.70;;;;;;;;;;4977858;28;20456;-71
2023/03/15 13:40:58;;;;;;;5.05;0.90;;;;;;;;;;4978048;28;20295;-71
2023/03/15 13:43:31;;;;;;;2.22;0.93;;;;;;;;;;4979740;28;20060;-71
2023/03/15 13:45:58;;;;;;;5.93;1.20;;;;;;;;;;4979946;28;20061;-71
2023/03/15 13:48:26;;;;;;;2.72;0.90;;;;;;;;;;4979062;28;20384;-71
2023/03/15 13:50:53;;;;;;;1.50;0.88;;;;;;;;;;4981245;28;20058;-70
2023/03/15 13:53:23;;;;;;;6.70;1.00;;;;;;;;;;4979895;28;20057;-71
2023/03/15 13:55:52;;;;;;;1.35;0.80;;;;;;;;;;4981853;28;20145;-69
2023/03/15 13:58:18;;;;;;;3.15;1.13;;;;;;;;;;4981595;28;20070;-69
2023/03/15 14:00:44;;;;;;;2.00;1.00;;;;;;;;;;4981986;28;20132;-71
2023/03/15 14:03:21;;;;;;;1.05;0.80;;;;;;;;;;4981220;28;20181;-71
2023/03/15 14:05:49;;;;;;;3.95;0.90;;;;;;;;;;4964618;28;20100;-70
2023/03/15 14:08:30;;;;;;;3.72;0.68;;;;;;;;;;4983093;28;20057;-70
2023/03/15 14:11:02;;;;;;;2.50;1.23;;;;;;;;;;4980418;28;20413;-70
2023/03/15 14:13:51;;;;;;;0.70;0.65;;;;;;;;;;4979908;28;20054;-70
2023/03/15 14:16:42;;;;;;;1.58;0.80;;;;;;;;;;4973817;28;20501;-70
2023/03/15 14:19:28;;;;;;;2.95;0.90;;;;;;;;;;4981448;28;20092;-69
2023/03/15 14:22:00;;;;;;;1.50;0.80;;;;;;;;;;4960015;28;20050;-70
2023/03/15 14:24:40;;;;;;;1.83;0.80;;;;;;;;;;4982416;28;20061;-70
2023/03/15 14:27:12;;;;;;;1.48;0.77;;;;;;;;;;4983560;28;20070;-70
2023/03/15 14:29:48;;;;;;;1.48;0.77;;;;;;;;;;4980521;28;20078;-69
2023/03/15 14:32:33;;;;;;;1.73;0.70;;;;;;;;;;4979752;28;20622;-71
2023/03/15 14:35:27;;;;;;;5.05;0.80;;;;;;;;;;4979743;28;20062;-72
2023/03/15 14:38:18;;;;;;;2.22;0.70;;;;;;;;;;4966230;28;20156;-71
2023/03/15 14:40:44;;;;;;;2.45;0.90;;;;;;;;;;4983222;28;20516;-71
2023/03/15 14:43:10;;;;;;;2.15;0.82;;;;;;;;;;4982135;28;20100;-71
2023/03/15 14:45:38;;;;;;;3.22;1.00;;;;;;;;;;4979442;28;20046;-71
2023/03/15 14:48:14;;;;;;;1.08;0.90;;;;;;;;;;4980854;28;20604;-71
2023/03/15 14:50:41;;;;;;;1.15;0.80;;;;;;;;;;4976265;28;20117;-71
2023/03/15 14:53:11;;;;;;;1.63;0.80;;;;;;;;;;4979844;28;20057;-71
2023/03/15 14:55:36;;;;;;;1.27;0.55;;;;;;;;;;4980023;28;20632;-73
2023/03/15 14:58:08;;;;;;;8.20;1.75;;;;;;;;;;4982004;28;20556;-71
2023/03/15 15:00:34;;;;;;;0.70;0.70;;;;;;;;;;4980657;28;20105;-71
2023/03/15 15:03:00;;;;;;;3.50;0.73;;;;;;;;;;4982766;28;20046;-71
2023/03/15 15:05:31;;;;;;;2.22;1.05;;;;;;;;;;4982155;28;20421;-71
2023/03/15 15:08:11;;;;;;;2.40;1.00;;;;;;;;;;4982951;28;20061;-71
2023/03/15 15:10:38;;;;;;;1.30;0.75;;;;;;;;;;4980940;28;20030;-70
2023/03/15 15:13:04;;;;;;;2.50;0.75;;;;;;;;;;4980718;28;20868;-71